EST,Max TemperatureF,Mean TemperatureF,Min TemperatureF,Max Dew PointF,MeanDew PointF,Min DewpointF,Max Humidity, Mean Humidity, Min Humidity, Max Sea Level PressureIn, Mean Sea Level PressureIn, Min Sea Level PressureIn, Max VisibilityMiles, Mean VisibilityMiles, Min VisibilityMiles, Max Wind SpeedMPH, Mean Wind SpeedMPH, Max Gust SpeedMPH,PrecipitationIn, CloudCover, Events, WindDirDegrees
2012-12-1,57,46,35,42,37,30,85,70,55,30.30,30.24,30.19,8,6,4,16,8,22,0.00,4,,187
2012-12-2,54,51,48,54,49,41,100,83,66,30.18,30.08,30.02,8,4,0,22,12,30,0.26,8,Fog-Rain,221
2012-12-3,60,57,54,57,55,53,100,92,84,30.20,30.15,30.10,7,2,0,14,8,17,0.00,7,Fog,190
2012-12-4,61,51,40,56,49,39,93,83,72,30.13,30.05,29.96,10,7,2,21,12,26,0.49,7,Rain,226
2012-12-5,40,34,28,36,27,21,93,75,56,30.39,30.30,30.14,10,9,5,17,6,24,0.00,5,,323
2012-12-6,44,35,26,30,25,21,81,67,53,30.36,30.20,30.03,10,10,9,14,6,17,0.00,5,,145
2012-12-7,48,45,41,46,43,33,100,83,65,30.01,29.95,29.86,9,3,0,10,5,13,0.54,8,Fog-Rain,198
2012-12-8,52,45,38,49,44,34,100,89,77,30.12,29.90,29.79,10,3,0,16,9,22,0.06,7,Fog-Rain,267
2012-12-9,56,46,36,55,41,31,100,88,76,30.16,29.95,29.70,10,5,1,15,11,20,0.24,8,Rain,129
2012-12-10,57,46,34,55,43,31,93,86,79,29.84,29.67,29.60,6,3,0,18,9,23,0.54,8,Fog-Rain-Snow,281
2012-12-11,38,33,28,31,27,21,89,74,59,30.24,30.04,29.86,8,6,3,18,8,22,T,7,Snow,265
2012-12-12,40,31,22,25,22,19,88,71,54,30.44,30.37,30.25,10,6,3,10,5,17,0.00,0,,215
2012-12-13,43,33,22,26,21,19,88,64,39,30.45,30.38,30.24,10,8,5,12,5,14,0.00,0,,174
2012-12-14,48,37,26,29,25,21,81,64,46,30.30,30.26,30.22,10,8,5,10,6,14,0.00,1,,204
2012-12-15,48,41,34,35,28,25,70,58,45,30.21,30.07,29.84,10,9,6,17,8,21,T,7,Rain,143
2012-12-16,58,53,47,51,44,36,89,75,61,29.83,29.74,29.67,10,9,5,22,11,29,0.07,8,Rain,203
2012-12-17,52,48,43,45,43,41,93,87,80,29.75,29.66,29.53,7,4,2,13,4,18,0.03,7,Rain,276
2012-12-18,43,39,35,40,33,27,93,79,64,29.81,29.71,29.53,10,6,2,17,10,22,0.21,7,Rain,278
2012-12-19,43,38,33,37,34,28,92,79,65,30.15,29.99,29.75,8,5,2,14,5,18,0.01,7,Rain,261
2012-12-20,49,43,36,43,36,28,96,79,62,30.11,29.63,29.31,10,6,1,35,18,44,0.45,8,Rain,156
2012-12-21,37,33,29,30,26,24,92,81,69,29.76,29.47,29.29,10,3,0,35,20,44,0.24,8,Snow,276
2012-12-22,31,26,20,25,21,17,81,72,63,30.11,30.00,29.73,10,8,4,30,15,41,T,7,Snow,281
2012-12-23,36,27,17,23,20,14,92,76,59,30.06,29.99,29.93,8,6,5,12,6,14,0.00,1,,246
2012-12-24,35,28,21,31,26,20,96,83,69,30.01,29.89,29.76,8,4,0,14,6,17,0.03,7,Fog-Snow,73
2012-12-25,35,33,31,31,27,23,92,81,69,30.24,30.13,29.94,10,7,0,15,7,20,0.00,8,Fog,9
2012-12-26,32,30,27,27,24,21,92,79,66,30.19,29.82,29.61,10,4,0,26,15,33,0.58,8,Snow,58
2012-12-27,32,30,27,29,26,22,92,85,78,30.18,29.98,29.70,10,6,1,15,7,18,0.04,8,Snow,308
2012-12-28,31,27,23,22,20,18,88,76,63,30.19,30.10,29.92,10,7,5,12,5,25,0.00,7,,190
2012-12-29,33,29,25,28,24,20,92,84,75,30.01,29.80,29.69,6,3,0,17,9,22,0.27,8,Fog-Snow,341
2012-12-30,28,23,18,24,20,14,88,83,77,30.38,30.25,30.01,8,4,1,21,12,25,0.01,7,Snow,263
2012-12-31,32,25,18,29,23,15,92,75,57,30.30,30.12,29.99,7,4,0,22,13,25,0.14,7,Snow,226